createdAt,value
2022-10-10T00:01:31.265Z,9.65
2022-10-10T00:03:58.608Z,9.61
2022-10-10T00:06:29.185Z,9.66
2022-10-10T00:08:59.328Z,9.67
2022-10-10T00:11:26.065Z,9.66
2022-10-10T00:13:52.804Z,9.59
2022-10-10T00:16:20.538Z,9.54
2022-10-10T00:18:47.776Z,9.57
2022-10-10T00:21:14.995Z,9.51
2022-10-10T00:23:41.913Z,9.54
2022-10-10T00:26:09.628Z,9.46
2022-10-10T00:28:38.889Z,9.42
2022-10-10T00:31:09.787Z,9.46
2022-10-10T00:33:37.274Z,9.41
2022-10-10T00:36:05.378Z,9.35
2022-10-10T00:38:32.631Z,9.28
2022-10-10T00:40:59.588Z,9.23
2022-10-10T00:43:27.258Z,9.21
2022-10-10T00:45:54.293Z,9.37
2022-10-10T00:48:26.287Z,9.33
2022-10-10T00:50:55.947Z,9.29
2022-10-10T00:53:28.822Z,9.36
2022-10-10T00:55:56.499Z,9.47
2022-10-10T00:58:24.183Z,9.34
2022-10-10T01:00:52.104Z,9.40
2022-10-10T01:03:19.017Z,9.48
2022-10-10T01:05:47.719Z,9.38
2022-10-10T01:08:14.973Z,9.57
2022-10-10T01:10:59.692Z,9.55
2022-10-10T01:13:54.080Z,9.55
2022-10-10T01:16:37.916Z,9.55
2022-10-10T01:19:31.883Z,9.57
2022-10-10T01:22:25.730Z,9.53
2022-10-10T01:25:07.411Z,9.57
2022-10-10T01:27:52.827Z,9.49
2022-10-10T01:30:24.296Z,9.56
2022-10-10T01:33:03.050Z,9.50
2022-10-10T01:35:48.242Z,9.48
2022-10-10T01:39:18.784Z,9.36
2022-10-10T01:41:59.787Z,9.38
2022-10-10T01:44:26.377Z,9.38
2022-10-10T01:46:53.237Z,9.34
2022-10-10T01:49:30.930Z,9.36
2022-10-10T01:52:05.970Z,9.32
2022-10-10T01:54:36.286Z,9.39
2022-10-10T01:57:18.167Z,9.29
2022-10-10T02:00:06.973Z,9.30
2022-10-10T02:02:55.030Z,9.38
2022-10-10T02:05:25.885Z,9.38
2022-10-10T02:08:05.569Z,9.30
2022-10-10T02:10:36.591Z,9.38
2022-10-10T02:13:05.723Z,9.39
2022-10-10T02:15:42.642Z,9.35
2022-10-10T02:18:10.934Z,9.33
2022-10-10T02:20:37.792Z,9.30
2022-10-10T02:23:06.948Z,9.26
2022-10-10T02:25:39.086Z,9.30
2022-10-10T02:28:12.898Z,9.24
2022-10-10T02:30:45.237Z,9.24
2022-10-10T02:33:16.053Z,9.21
2022-10-10T02:35:45.639Z,9.19
2022-10-10T02:38:14.519Z,9.09
2022-10-10T02:40:44.871Z,9.17
2022-10-10T02:43:12.956Z,9.08
2022-10-10T02:45:40.812Z,9.05
2022-10-10T02:48:07.752Z,9.11
2022-10-10T02:50:35.179Z,9.13
2022-10-10T02:53:01.933Z,9.13
2022-10-10T02:55:28.640Z,9.10
2022-10-10T02:57:55.423Z,9.11
2022-10-10T03:00:22.153Z,9.00
2022-10-10T03:02:49.606Z,9.05
2022-10-10T03:05:16.633Z,8.99
2022-10-10T03:07:43.338Z,8.94
2022-10-10T03:10:10.746Z,8.92
2022-10-10T03:12:37.614Z,8.93
2022-10-10T03:15:09.348Z,8.96
2022-10-10T03:17:38.363Z,8.91
2022-10-10T03:20:05.997Z,8.92
2022-10-10T03:22:32.736Z,8.82
2022-10-10T03:24:59.519Z,8.88
2022-10-10T03:27:27.071Z,8.79
2022-10-10T03:29:53.901Z,8.76
2022-10-10T03:32:20.622Z,8.71
2022-10-10T03:34:47.302Z,8.72
2022-10-10T03:37:14.052Z,8.77
2022-10-10T03:39:40.710Z,8.55
2022-10-10T03:42:07.319Z,8.64
2022-10-10T03:44:34.609Z,8.60
2022-10-10T03:47:01.333Z,8.52
2022-10-10T03:49:28.096Z,8.56
2022-10-10T03:51:54.929Z,8.61
2022-10-10T03:54:21.668Z,8.45
2022-10-10T03:56:48.300Z,8.55
2022-10-10T03:59:14.941Z,8.45
2022-10-10T04:01:41.723Z,8.35
2022-10-10T04:04:08.612Z,8.30
2022-10-10T04:06:35.439Z,8.32
2022-10-10T04:09:02.132Z,8.35
2022-10-10T04:11:28.873Z,8.34
2022-10-10T04:13:55.697Z,8.40
2022-10-10T04:16:22.308Z,8.47
2022-10-10T04:18:49.070Z,8.48
2022-10-10T04:21:15.776Z,8.40
2022-10-10T04:23:42.465Z,8.40
2022-10-10T04:26:09.141Z,8.29
2022-10-10T04:28:35.897Z,8.40
2022-10-10T04:31:02.637Z,8.33
2022-10-10T04:33:29.282Z,8.26
2022-10-10T04:35:55.981Z,8.26
2022-10-10T04:38:22.827Z,8.35
2022-10-10T04:40:50.984Z,8.30
2022-10-10T04:43:18.546Z,8.32
2022-10-10T04:45:47.708Z,8.20
2022-10-10T04:48:14.529Z,8.23
2022-10-10T04:50:41.433Z,8.26
2022-10-10T04:53:08.057Z,8.27
2022-10-10T04:55:34.917Z,8.19
2022-10-10T04:58:01.860Z,8.19
2022-10-10T05:00:28.534Z,8.14
2022-10-10T05:02:55.204Z,8.17
2022-10-10T05:05:22.001Z,8.16
2022-10-10T05:07:51.864Z,8.10
2022-10-10T05:10:22.270Z,8.11
2022-10-10T05:12:49.170Z,8.07
2022-10-10T05:15:16.992Z,8.00
2022-10-10T05:17:43.713Z,7.99
2022-10-10T05:20:10.903Z,8.07
2022-10-10T05:22:37.547Z,8.10
2022-10-10T05:25:04.560Z,8.01
2022-10-10T05:27:31.305Z,8.07
2022-10-10T05:29:58.078Z,8.04
2022-10-10T05:32:24.776Z,7.94
2022-10-10T05:34:51.536Z,8.02
2022-10-10T05:37:18.211Z,8.03
2022-10-10T05:39:44.850Z,8.06
2022-10-10T05:42:14.035Z,8.05
2022-10-10T05:44:41.065Z,8.01
2022-10-10T05:47:07.759Z,8.05
2022-10-10T05:49:34.525Z,7.99
2022-10-10T05:52:01.292Z,7.98
2022-10-10T05:54:27.948Z,8.06
2022-10-10T05:56:54.664Z,8.13
2022-10-10T05:59:21.478Z,8.04
2022-10-10T06:01:48.226Z,8.06
2022-10-10T06:04:14.982Z,8.10
2022-10-10T06:06:42.080Z,8.13
2022-10-10T06:09:09.648Z,8.25
2022-10-10T06:11:36.636Z,8.13
2022-10-10T06:14:03.440Z,8.26
2022-10-10T06:16:30.221Z,8.25
2022-10-10T06:18:57.226Z,8.41
2022-10-10T06:21:25.104Z,8.35
2022-10-10T06:23:52.357Z,8.46
2022-10-10T06:26:19.093Z,8.64
2022-10-10T06:28:46.112Z,8.71
2022-10-10T06:31:14.724Z,8.70
2022-10-10T06:33:45.408Z,8.82
2022-10-10T06:36:13.761Z,8.85
2022-10-10T06:38:42.517Z,8.94
2022-10-10T06:41:09.840Z,8.98
2022-10-10T06:43:37.007Z,9.11
2022-10-10T06:46:04.222Z,9.11
2022-10-10T06:48:32.164Z,9.26
2022-10-10T06:51:12.825Z,9.38
2022-10-10T06:53:39.584Z,9.35
2022-10-10T06:56:06.276Z,9.42
2022-10-10T06:58:33.741Z,9.43
2022-10-10T07:01:03.038Z,9.62
2022-10-10T07:03:31.497Z,9.57
2022-10-10T07:06:00.827Z,9.72
2022-10-10T07:08:28.517Z,9.69
2022-10-10T07:10:55.267Z,9.92
2022-10-10T07:13:21.936Z,9.91
2022-10-10T07:15:48.890Z,9.99
2022-10-10T07:18:17.957Z,10.11
2022-10-10T07:20:44.624Z,10.19
2022-10-10T07:23:11.373Z,10.17
2022-10-10T07:25:39.668Z,10.30
2022-10-10T07:28:07.556Z,10.50
2022-10-10T07:30:39.248Z,10.55
2022-10-10T07:33:05.909Z,10.56
2022-10-10T07:35:32.666Z,10.54
2022-10-10T07:37:59.310Z,10.59
2022-10-10T07:40:26.183Z,10.77
2022-10-10T07:42:53.306Z,10.89
2022-10-10T07:45:20.522Z,11.03
2022-10-10T07:47:47.195Z,11.10
2022-10-10T07:50:14.018Z,11.12
2022-10-10T07:52:40.925Z,11.29
2022-10-10T07:55:08.812Z,11.46
2022-10-10T07:57:35.822Z,11.55
2022-10-10T08:00:09.230Z,11.58
2022-10-10T08:02:36.712Z,11.76
2022-10-10T08:05:03.806Z,11.68
2022-10-10T08:07:30.689Z,11.79
2022-10-10T08:09:57.429Z,11.94
2022-10-10T08:12:24.146Z,11.87
2022-10-10T08:14:50.922Z,11.82
2022-10-10T08:17:17.717Z,12.05
2022-10-10T08:19:44.442Z,12.24
2022-10-10T08:22:11.166Z,12.38
2022-10-10T08:24:37.894Z,12.25
2022-10-10T08:27:04.576Z,12.26
2022-10-10T08:29:33.422Z,12.47
2022-10-10T08:32:00.323Z,12.64
2022-10-10T08:34:27.051Z,12.73
2022-10-10T08:36:53.828Z,12.99
2022-10-10T08:39:20.462Z,12.95
2022-10-10T08:41:50.514Z,13.11
2022-10-10T08:44:29.307Z,13.14
2022-10-10T08:47:00.888Z,13.49
2022-10-10T08:49:34.818Z,13.64
2022-10-10T08:52:05.638Z,13.69
2022-10-10T08:54:34.679Z,13.58
2022-10-10T08:57:05.436Z,13.82
2022-10-10T08:59:38.587Z,14.12
2022-10-10T09:02:43.923Z,14.04
2022-10-10T09:05:30.929Z,14.21
2022-10-10T09:08:26.758Z,14.35
2022-10-10T09:11:07.033Z,14.27
2022-10-10T09:13:39.837Z,14.28
2022-10-10T09:16:19.951Z,14.42
2022-10-10T09:19:05.279Z,14.60
2022-10-10T09:21:34.936Z,14.71
2022-10-10T09:24:12.976Z,14.92
2022-10-10T09:26:49.198Z,14.24
2022-10-10T09:29:27.606Z,14.67
2022-10-10T09:32:23.013Z,15.05
2022-10-10T09:34:54.986Z,15.03
2022-10-10T09:37:45.714Z,14.94
2022-10-10T09:40:17.819Z,14.54
2022-10-10T09:42:45.192Z,14.85
2022-10-10T09:45:32.895Z,14.93
2022-10-10T09:47:59.775Z,15.05
2022-10-10T09:50:27.005Z,15.16
2022-10-10T09:52:57.080Z,15.11
2022-10-10T09:55:39.647Z,15.33
2022-10-10T09:58:36.944Z,14.71
2022-10-10T10:01:21.411Z,14.85
2022-10-10T10:04:30.434Z,15.01
2022-10-10T10:07:32.151Z,15.06
2022-10-10T10:10:11.349Z,15.41
2022-10-10T10:12:41.024Z,15.55
2022-10-10T10:15:19.024Z,14.78
2022-10-10T10:17:45.944Z,15.13
2022-10-10T10:20:47.347Z,15.05
2022-10-10T10:23:32.446Z,15.05
2022-10-10T10:26:03.609Z,15.01
2022-10-10T10:28:30.401Z,15.12
2022-10-10T10:30:58.617Z,15.62
2022-10-10T10:33:46.534Z,15.65
2022-10-10T10:36:25.656Z,15.70
2022-10-10T10:38:54.438Z,15.85
2022-10-10T10:41:42.529Z,15.73
2022-10-10T10:44:23.868Z,15.81
2022-10-10T10:47:17.893Z,15.77
2022-10-10T10:50:03.498Z,15.67
2022-10-10T10:53:07.337Z,15.73
2022-10-10T10:55:49.035Z,15.64
2022-10-10T11:02:09.440Z,16.16
2022-10-10T11:05:22.032Z,16.16
2022-10-10T11:07:30.509Z,16.06
2022-10-10T11:10:10.116Z,16.20
2022-10-10T11:12:58.125Z,16.32
2022-10-10T11:16:05.618Z,15.82
2022-10-10T11:18:35.253Z,16.27
2022-10-10T11:21:08.311Z,16.42
2022-10-10T11:23:43.456Z,16.16
2022-10-10T11:26:22.038Z,16.50
2022-10-10T11:29:00.368Z,16.41
2022-10-10T11:31:33.388Z,16.28
2022-10-10T11:34:06.805Z,16.19
2022-10-10T11:36:37.527Z,16.09
2022-10-10T11:39:20.650Z,16.05
2022-10-10T11:42:14.010Z,16.35
2022-10-10T11:45:05.272Z,16.60
2022-10-10T11:47:37.866Z,16.57
2022-10-10T11:50:34.168Z,16.53
2022-10-10T11:53:11.425Z,16.52
2022-10-10T11:55:43.763Z,16.67
2022-10-10T11:58:10.310Z,16.63
2022-10-10T12:00:59.265Z,16.37
2022-10-10T12:03:26.742Z,16.34
2022-10-10T12:06:14.431Z,16.49
2022-10-10T12:08:54.443Z,16.55
2022-10-10T12:11:26.492Z,16.48
2022-10-10T12:13:57.145Z,16.52
2022-10-10T12:16:30.763Z,16.19
2022-10-10T12:19:06.898Z,16.40
2022-10-10T12:21:53.332Z,16.51
2022-10-10T12:24:20.591Z,16.53
2022-10-10T12:26:56.571Z,16.53
2022-10-10T12:29:51.382Z,16.58
2022-10-10T12:32:18.157Z,16.53
2022-10-10T12:34:47.792Z,16.32
2022-10-10T12:37:31.491Z,16.40
2022-10-10T12:40:07.422Z,16.67
2022-10-10T12:43:01.620Z,16.58
2022-10-10T12:45:31.384Z,16.44
2022-10-10T12:48:06.262Z,16.12
2022-10-10T12:50:41.712Z,16.09
2022-10-10T12:53:19.821Z,16.15
2022-10-10T12:55:47.617Z,16.44
2022-10-10T12:58:27.446Z,16.47
2022-10-10T13:01:01.057Z,16.51
2022-10-10T13:03:31.358Z,16.64
2022-10-10T13:06:26.335Z,16.70
2022-10-10T13:08:55.163Z,16.33
2022-10-10T13:11:23.267Z,16.13
2022-10-10T13:13:52.277Z,16.22
2022-10-10T13:16:21.953Z,16.01
2022-10-10T13:18:57.466Z,16.02
2022-10-10T13:21:29.331Z,16.02
2022-10-10T13:24:03.621Z,15.99
2022-10-10T13:26:36.404Z,16.04
2022-10-10T13:29:23.253Z,16.20
2022-10-10T13:31:53.096Z,16.25
2022-10-10T13:34:27.244Z,16.39
2022-10-10T13:36:59.898Z,16.55
2022-10-10T13:39:28.694Z,16.70
2022-10-10T13:41:56.234Z,16.68
2022-10-10T13:44:46.242Z,16.52
2022-10-10T13:47:58.087Z,16.53
2022-10-10T13:50:32.679Z,16.24
2022-10-10T13:53:27.918Z,16.20
2022-10-10T13:56:11.304Z,16.37
2022-10-10T13:58:51.243Z,16.47
2022-10-10T14:01:29.582Z,16.20
2022-10-10T14:04:23.555Z,16.07
2022-10-10T14:07:11.394Z,16.29
2022-10-10T14:09:43.903Z,16.32
2022-10-10T14:12:42.968Z,16.62
2022-10-10T14:15:35.279Z,16.37
2022-10-10T14:18:10.618Z,16.35
2022-10-10T14:20:37.346Z,16.23
2022-10-10T14:23:04.963Z,16.28
2022-10-10T14:25:32.215Z,16.15
2022-10-10T14:27:59.023Z,16.05
2022-10-10T14:30:25.725Z,16.18
2022-10-10T14:32:52.527Z,15.81
2022-10-10T14:35:19.214Z,15.72
2022-10-10T14:37:45.939Z,15.87
2022-10-10T14:40:21.461Z,15.97
2022-10-10T14:42:48.658Z,15.97
2022-10-10T14:45:16.965Z,16.06
2022-10-10T14:47:43.744Z,15.88
2022-10-10T14:50:38.370Z,15.80
2022-10-10T14:53:05.008Z,15.62
2022-10-10T14:55:31.811Z,15.69
2022-10-10T14:57:58.666Z,15.69
2022-10-10T15:00:27.196Z,15.57
2022-10-10T15:02:54.546Z,15.53
2022-10-10T15:05:22.104Z,15.61
2022-10-10T15:07:53.494Z,15.34
2022-10-10T15:10:35.733Z,15.32
2022-10-10T15:13:03.135Z,15.38
2022-10-10T15:15:30.136Z,15.49
2022-10-10T15:18:00.679Z,15.55
2022-10-10T15:20:31.185Z,15.43
2022-10-10T15:23:03.099Z,15.35
2022-10-10T15:25:33.657Z,15.30
2022-10-10T15:28:02.479Z,15.24
2022-10-10T15:30:29.386Z,15.17
2022-10-10T15:32:56.079Z,15.20
2022-10-10T15:35:24.974Z,15.18
2022-10-10T15:37:51.847Z,15.07
2022-10-10T15:40:23.099Z,15.05
2022-10-10T15:42:50.704Z,14.98
2022-10-10T15:45:36.899Z,14.93
2022-10-10T15:48:04.873Z,15.01
2022-10-10T15:50:32.522Z,14.91
2022-10-10T15:52:59.165Z,14.98
2022-10-10T15:55:26.301Z,14.90
2022-10-10T15:57:52.974Z,14.88
2022-10-10T16:00:19.848Z,14.74
2022-10-10T16:02:46.624Z,14.56
2022-10-10T16:05:13.401Z,14.43
2022-10-10T16:07:47.726Z,14.31
2022-10-10T16:10:15.735Z,14.19
2022-10-10T16:12:42.620Z,14.07
2022-10-10T16:15:09.447Z,13.96
2022-10-10T16:17:36.183Z,13.87
2022-10-10T16:20:03.306Z,13.85
2022-10-10T16:22:30.021Z,13.90
2022-10-10T16:27:43.610Z,13.71
2022-10-10T16:30:10.754Z,13.61
2022-10-10T16:32:42.084Z,13.56
2022-10-10T16:35:10.381Z,13.63
2022-10-10T16:37:37.137Z,13.68
2022-10-10T16:40:04.226Z,13.62
2022-10-10T16:42:30.989Z,13.66
2022-10-10T16:44:57.684Z,13.52
2022-10-10T16:47:24.420Z,13.68
2022-10-10T16:49:51.100Z,13.64
2022-10-10T16:52:17.704Z,13.77
2022-10-10T16:54:46.891Z,13.49
2022-10-10T16:57:16.900Z,13.48
2022-10-10T16:59:43.613Z,13.49
2022-10-10T17:02:11.533Z,13.56
2022-10-10T17:04:38.218Z,13.51
2022-10-10T17:07:04.930Z,13.39
2022-10-10T17:09:31.800Z,13.40
2022-10-10T17:11:58.494Z,13.26
2022-10-10T17:14:25.222Z,13.18
2022-10-10T17:17:11.952Z,13.14
2022-10-10T17:19:38.686Z,13.08
2022-10-10T17:22:05.405Z,12.97
2022-10-10T17:24:33.208Z,12.72
2022-10-10T17:26:59.912Z,12.65
2022-10-10T17:29:26.664Z,12.55
2022-10-10T17:31:53.409Z,12.49
2022-10-10T17:34:20.162Z,12.31
2022-10-10T17:36:46.889Z,12.25
2022-10-10T17:39:13.540Z,12.11
2022-10-10T17:41:40.617Z,12.06
2022-10-10T17:44:10.719Z,12.07
2022-10-10T17:46:38.585Z,12.02
2022-10-10T17:49:07.347Z,12.05
2022-10-10T17:51:35.624Z,11.99
2022-10-10T17:54:04.324Z,11.98
2022-10-10T17:56:31.412Z,12.00
2022-10-10T17:59:01.340Z,11.92
2022-10-10T18:01:30.640Z,11.93
2022-10-10T18:03:58.421Z,11.90
2022-10-10T18:06:25.542Z,11.86
2022-10-10T18:08:54.006Z,11.84
2022-10-10T18:11:22.983Z,11.85
2022-10-10T18:13:50.499Z,11.74
2022-10-10T18:16:20.546Z,11.63
2022-10-10T18:18:51.268Z,11.59
2022-10-10T18:21:20.500Z,11.52
2022-10-10T18:23:47.698Z,11.44
2022-10-10T18:26:23.136Z,11.39
2022-10-10T18:28:52.465Z,11.36
2022-10-10T18:31:25.567Z,11.34
2022-10-10T18:33:52.355Z,11.28
2022-10-10T18:36:22.748Z,11.20
2022-10-10T18:38:49.640Z,11.17
2022-10-10T18:41:25.253Z,11.07
2022-10-10T18:43:52.114Z,11.08
2022-10-10T18:46:22.108Z,11.05
2022-10-10T18:48:52.954Z,11.02
2022-10-10T18:51:24.635Z,10.98
2022-10-10T18:53:55.293Z,10.95
2022-10-10T18:56:24.798Z,10.91
2022-10-10T18:58:56.045Z,10.84
2022-10-10T19:01:25.099Z,10.80
2022-10-10T19:03:53.165Z,10.80
2022-10-10T19:06:20.764Z,10.80
2022-10-10T19:08:47.705Z,10.80
2022-10-10T19:11:23.318Z,10.77
2022-10-10T19:13:50.613Z,10.75
2022-10-10T19:16:17.906Z,10.67
2022-10-10T19:18:45.425Z,10.70
2022-10-10T19:21:13.070Z,10.69
2022-10-10T19:23:40.019Z,10.62
2022-10-10T19:26:09.311Z,10.54
2022-10-10T19:28:37.525Z,10.51
2022-10-10T19:31:06.822Z,10.51
2022-10-10T19:33:34.490Z,10.57
2022-10-10T19:36:04.237Z,10.59
2022-10-10T19:38:33.787Z,10.51
2022-10-10T19:41:01.042Z,10.51
2022-10-10T19:43:29.022Z,10.47
2022-10-10T19:45:55.919Z,10.43
2022-10-10T19:48:24.727Z,10.49
2022-10-10T19:50:53.567Z,10.39
2022-10-10T19:53:20.269Z,10.37
2022-10-10T19:55:58.323Z,10.38
2022-10-10T19:58:25.251Z,10.38
2022-10-10T20:00:51.941Z,10.37
2022-10-10T20:03:18.695Z,10.39
2022-10-10T20:05:45.362Z,10.36
2022-10-10T20:08:12.235Z,10.36
2022-10-10T20:10:43.187Z,10.38
2022-10-10T20:13:14.780Z,10.36
2022-10-10T20:15:43.869Z,10.33
2022-10-10T20:18:11.822Z,10.31
2022-10-10T20:20:51.333Z,10.29
2022-10-10T20:23:22.509Z,10.19
2022-10-10T20:25:49.258Z,10.09
2022-10-10T20:28:18.509Z,9.99
2022-10-10T20:30:51.203Z,9.98
2022-10-10T20:33:19.158Z,9.95
2022-10-10T20:35:46.916Z,9.97
2022-10-10T20:38:14.441Z,9.92
2022-10-10T20:40:43.918Z,9.95
2022-10-10T20:43:14.744Z,9.94
2022-10-10T20:45:41.464Z,9.87
2022-10-10T20:48:09.217Z,9.90
2022-10-10T20:50:37.215Z,9.85
2022-10-10T20:53:04.658Z,9.90
2022-10-10T20:55:31.668Z,9.85
2022-10-10T20:57:58.409Z,9.78
2022-10-10T21:00:26.662Z,9.81
2022-10-10T21:02:55.956Z,9.76
2022-10-10T21:05:23.502Z,9.76
2022-10-10T21:07:50.260Z,9.76
2022-10-10T21:10:17.089Z,9.72
2022-10-10T21:12:43.824Z,9.65
2022-10-10T21:15:10.864Z,9.64
2022-10-10T21:17:37.595Z,9.63
2022-10-10T21:20:05.690Z,9.59
2022-10-10T21:22:32.658Z,9.60
2022-10-10T21:24:59.385Z,9.63
2022-10-10T21:27:26.250Z,9.65
2022-10-10T21:29:52.956Z,9.66
2022-10-10T21:32:19.620Z,9.67
2022-10-10T21:34:46.642Z,9.62
2022-10-10T21:37:13.679Z,9.59
2022-10-10T21:39:40.339Z,9.56
2022-10-10T21:42:06.998Z,9.53
2022-10-10T21:44:33.775Z,9.56
2022-10-10T21:47:00.581Z,9.51
2022-10-10T21:49:27.240Z,9.49
2022-10-10T21:51:53.949Z,9.52
2022-10-10T21:54:20.698Z,9.49
2022-10-10T21:56:47.409Z,9.50
2022-10-10T21:59:14.049Z,9.49
2022-10-10T22:01:40.766Z,9.43
2022-10-10T22:04:07.608Z,9.41
2022-10-10T22:06:34.679Z,9.42
2022-10-10T22:09:01.875Z,9.45
2022-10-10T22:11:31.346Z,9.45
2022-10-10T22:13:58.517Z,9.46
2022-10-10T22:16:25.278Z,9.46
2022-10-10T22:18:56.153Z,9.47
2022-10-10T22:21:28.022Z,9.46
2022-10-10T22:23:57.044Z,9.49
2022-10-10T22:26:23.841Z,9.46
2022-10-10T22:28:50.604Z,9.56
2022-10-10T22:31:17.535Z,9.53
2022-10-10T22:33:48.355Z,9.54
2022-10-10T22:36:15.858Z,9.52
2022-10-10T22:38:45.163Z,9.51
2022-10-10T22:41:13.577Z,9.57
2022-10-10T22:43:40.272Z,9.48
2022-10-10T22:46:07.687Z,9.48
2022-10-10T22:48:35.294Z,9.42
2022-10-10T22:51:13.786Z,9.44
2022-10-10T22:53:41.776Z,9.41
2022-10-10T22:56:10.266Z,9.43
2022-10-10T22:58:37.051Z,9.40
2022-10-10T23:01:09.345Z,9.35
2022-10-10T23:03:36.010Z,9.38
2022-10-10T23:06:03.520Z,9.29
2022-10-10T23:08:31.302Z,9.26
2022-10-10T23:10:58.116Z,9.25
2022-10-10T23:13:25.640Z,9.24
2022-10-10T23:15:52.314Z,9.18
2022-10-10T23:18:19.066Z,9.15
2022-10-10T23:20:47.274Z,9.14
2022-10-10T23:23:15.311Z,9.10
2022-10-10T23:25:47.012Z,9.08
2022-10-10T23:28:15.259Z,9.07
2022-10-10T23:30:43.961Z,9.02
2022-10-10T23:33:11.640Z,9.00
2022-10-10T23:35:38.845Z,8.96
2022-10-10T23:38:06.081Z,9.03
2022-10-10T23:40:33.894Z,8.95
2022-10-10T23:43:00.570Z,8.93
2022-10-10T23:45:27.271Z,8.90
2022-10-10T23:47:53.933Z,8.89
2022-10-10T23:50:24.087Z,8.88
2022-10-10T23:52:50.808Z,8.87
2022-10-10T23:55:17.549Z,8.84
2022-10-10T23:57:44.212Z,8.91
